Time;durP1;ratioP1;P1;durP2;ratioP2;P2;SDS_P1;SDS_P2;PMS_P1;PMS_P2;Temp;Humidity;BMP_temperature;BMP_pressure;BME280_temperature;BME280_humidity;BME280_pressure;Samples;Min_cycle;Max_cycle;Signal;HPM_P1;HPM_P2
2023/06/08 00:00:05;;;;;;;11.63;5.38;;;;;;;16.19;100.00;100922.63;6236750;28;20052;-90
2023/06/08 00:03:12;;;;;;;6.40;5.20;;;;;;;16.15;100.00;100919.50;6247356;28;20533;-90
2023/06/08 00:06:15;;;;;;;9.70;4.93;;;;;;;16.12;100.00;100928.44;6237282;28;20136;-90
2023/06/08 00:09:17;;;;;;;9.27;5.45;;;;;;;16.13;100.00;100930.06;6235392;28;20053;-91
2023/06/08 00:12:19;;;;;;;8.57;4.90;;;;;;;16.13;100.00;100931.88;6238795;28;20045;-91
2023/06/08 00:15:21;;;;;;;9.75;4.88;;;;;;;16.10;100.00;100925.16;6237254;28;20795;-90
2023/06/08 00:18:23;;;;;;;11.32;4.97;;;;;;;16.09;100.00;100928.72;6236767;28;20145;-90
2023/06/08 00:21:29;;;;;;;9.30;5.20;;;;;;;16.12;100.00;100936.28;6251889;28;20407;-91
2023/06/08 00:24:32;;;;;;;9.18;5.22;;;;;;;16.13;100.00;100926.66;6220147;28;20359;-90
2023/06/08 00:27:34;;;;;;;9.77;5.95;;;;;;;16.15;100.00;100927.31;6240117;28;20554;-91
2023/06/08 00:30:36;;;;;;;8.95;5.30;;;;;;;16.18;100.00;100920.97;6245336;28;20044;-90
2023/06/08 00:33:38;;;;;;;10.00;5.50;;;;;;;16.21;100.00;100931.13;6245786;28;20516;-91
2023/06/08 00:36:40;;;;;;;9.45;5.53;;;;;;;16.26;100.00;100918.44;6227013;28;20064;-91
2023/06/08 00:39:42;;;;;;;8.38;5.38;;;;;;;16.29;100.00;100923.38;6226971;28;20042;-91
2023/06/08 00:42:44;;;;;;;11.27;5.65;;;;;;;16.31;100.00;100913.59;6235814;28;20581;-91
2023/06/08 00:45:47;;;;;;;8.75;5.30;;;;;;;16.27;100.00;100910.47;6239438;28;20047;-90
2023/06/08 00:48:51;;;;;;;11.77;5.95;;;;;;;16.27;100.00;100912.22;6244274;28;20052;-91
2023/06/08 00:51:53;;;;;;;8.88;5.20;;;;;;;16.32;100.00;100912.59;6244300;28;20037;-91
2023/06/08 00:54:58;;;;;;;9.38;5.65;;;;;;;16.27;100.00;100912.22;6236286;28;20053;-91
2023/06/08 00:58:01;;;;;;;10.90;5.80;;;;;;;16.12;100.00;100904.94;6235029;28;20037;-91
2023/06/08 01:01:04;;;;;;;10.02;5.63;;;;;;;16.18;100.00;100906.13;6222848;28;20041;-90
2023/06/08 01:04:06;;;;;;;11.00;5.57;;;;;;;16.09;100.00;100907.81;6242628;28;20576;-90
2023/06/08 01:07:25;;;;;;;9.43;5.80;;;;;;;16.08;100.00;100911.41;6217733;28;20105;-91
2023/06/08 01:10:35;;;;;;;10.18;5.82;;;;;;;15.90;100.00;100903.56;6247752;28;20045;-91
2023/06/08 01:13:47;;;;;;;10.55;5.45;;;;;;;15.89;100.00;100906.31;6255148;28;20075;-91
2023/06/08 01:16:54;;;;;;;11.38;5.95;;;;;;;15.83;100.00;100912.94;6244982;28;20043;-91
2023/06/08 01:20:20;;;;;;;10.43;5.35;;;;;;;15.83;100.00;100912.13;6227645;28;20044;-91
2023/06/08 01:23:23;;;;;;;14.20;5.82;;;;;;;15.76;100.00;100908.44;6253311;28;20115;-91
2023/06/08 01:26:26;;;;;;;7.72;5.45;;;;;;;15.76;100.00;100905.84;6244840;28;20220;-91
2023/06/08 01:29:33;;;;;;;11.90;5.68;;;;;;;15.76;100.00;100898.00;6206634;28;20048;-91
2023/06/08 01:32:34;;;;;;;10.43;5.50;;;;;;;15.80;100.00;100894.13;6252420;28;20052;-91
2023/06/08 01:35:37;;;;;;;10.95;5.43;;;;;;;15.76;100.00;100891.00;6257677;28;20445;-91
2023/06/08 01:38:59;;;;;;;13.85;5.45;;;;;;;15.69;100.00;100895.97;6239620;28;20044;-91
2023/06/08 01:42:03;;;;;;;12.25;5.65;;;;;;;15.68;100.00;100891.69;6224246;28;20053;-91
2023/06/08 01:45:11;;;;;;;8.10;5.30;;;;;;;15.68;100.00;100898.72;6233891;28;20049;-91
2023/06/08 01:48:15;;;;;;;11.23;5.38;;;;;;;15.65;100.00;100888.53;6238008;28;20038;-91
2023/06/08 01:51:20;;;;;;;10.07;5.50;;;;;;;15.69;100.00;100887.28;6216572;28;20452;-91
2023/06/08 01:54:22;;;;;;;13.95;5.60;;;;;;;15.60;100.00;100891.59;6233544;28;20048;-91
2023/06/08 01:57:26;;;;;;;12.68;5.95;;;;;;;15.59;100.00;100897.78;6235461;28;20072;-91
2023/06/08 02:00:29;;;;;;;11.60;6.05;;;;;;;15.59;100.00;100899.56;6214914;28;20133;-91
2023/06/08 02:03:31;;;;;;;11.25;5.53;;;;;;;15.55;100.00;100888.56;6240895;28;20497;-91
2023/06/08 02:06:33;;;;;;;12.98;5.63;;;;;;;15.54;100.00;100896.56;6245647;28;20626;-91
2023/06/08 02:09:35;;;;;;;9.95;5.72;;;;;;;15.50;100.00;100890.81;6231598;28;20509;-91
2023/06/08 02:12:37;;;;;;;13.65;5.40;;;;;;;15.49;100.00;100886.56;6216101;28;20204;-91
2023/06/08 02:15:40;;;;;;;8.07;5.50;;;;;;;15.40;100.00;100890.03;6222086;28;20412;-91
2023/06/08 02:18:41;;;;;;;12.48;6.28;;;;;;;15.38;100.00;100891.94;6247926;28;20140;-91
2023/06/08 02:21:49;;;;;;;12.38;5.85;;;;;;;15.22;100.00;100889.97;6227388;28;20105;-91
2023/06/08 02:24:52;;;;;;;10.65;5.50;;;;;;;15.22;100.00;100884.75;6228050;28;20077;-91
2023/06/08 02:27:54;;;;;;;12.80;5.80;;;;;;;15.23;100.00;100889.00;6241617;28;20407;-91
2023/06/08 02:30:56;;;;;;;13.45;5.90;;;;;;;15.24;100.00;100888.84;6217568;28;20049;-91
2023/06/08 02:33:58;;;;;;;9.82;5.68;;;;;;;15.23;100.00;100894.22;6244756;28;20422;-91
2023/06/08 02:37:00;;;;;;;12.63;5.88;;;;;;;15.20;100.00;100884.06;6260678;28;20044;-91
2023/06/08 02:40:04;;;;;;;10.68;5.78;;;;;;;15.12;100.00;100886.56;6248822;28;20052;-91
2023/06/08 02:43:11;;;;;;;12.57;5.90;;;;;;;15.10;100.00;100884.09;6250794;28;20080;-91
2023/06/08 02:46:15;;;;;;;14.32;6.15;;;;;;;15.04;100.00;100884.66;6237528;28;20045;-91
2023/06/08 02:49:17;;;;;;;11.10;6.75;;;;;;;14.94;100.00;100887.28;6246466;28;20049;-91
2023/06/08 02:52:20;;;;;;;12.45;6.75;;;;;;;14.75;100.00;100885.53;6241797;28;20045;-91
2023/06/08 02:55:22;;;;;;;15.57;5.88;;;;;;;14.68;100.00;100883.63;6221606;28;20060;-90
2023/06/08 02:58:25;;;;;;;15.02;5.97;;;;;;;14.59;100.00;100874.88;6237469;28;20042;-90
2023/06/08 03:01:30;;;;;;;11.98;6.85;;;;;;;14.59;100.00;100870.47;6227155;28;20239;-91
2023/06/08 03:04:43;;;;;;;13.45;7.03;;;;;;;14.59;100.00;100874.88;6223452;28;20072;-91
2023/06/08 03:07:48;;;;;;;15.93;6.63;;;;;;;14.62;100.00;100859.78;6248330;28;20089;-91
2023/06/08 03:10:50;;;;;;;12.30;5.85;;;;;;;14.58;100.00;100853.22;6242562;28;20423;-91
2023/06/08 03:13:52;;;;;;;14.43;6.53;;;;;;;14.57;100.00;100853.34;6254601;28;20340;-90
2023/06/08 03:17:02;;;;;;;12.43;6.07;;;;;;;14.56;100.00;100854.31;6227212;28;20041;-90
2023/06/08 03:20:09;;;;;;;12.25;6.18;;;;;;;14.43;100.00;100871.03;6234245;28;20046;-90
2023/06/08 03:23:17;;;;;;;12.32;6.38;;;;;;;14.51;100.00;100872.09;6239508;28;20129;-90
2023/06/08 03:26:21;;;;;;;12.57;6.47;;;;;;;14.46;100.00;100871.69;6239553;28;20045;-91
2023/06/08 03:29:23;;;;;;;14.80;6.22;;;;;;;14.46;100.00;100863.88;6238663;28;20129;-91
2023/06/08 03:32:25;;;;;;;13.60;6.55;;;;;;;14.52;100.00;100865.94;6237742;28;20041;-90
2023/06/08 03:35:29;;;;;;;12.57;6.30;;;;;;;14.50;100.00;100865.25;6237865;28;20456;-91
2023/06/08 03:38:50;;;;;;;14.35;6.95;;;;;;;14.56;100.00;100868.16;6234726;28;20045;-91
2023/06/08 03:41:53;;;;;;;15.52;6.80;;;;;;;14.61;100.00;100878.97;6235841;28;20038;-91
2023/06/08 03:45:00;;;;;;;14.93;6.57;;;;;;;14.54;100.00;100871.88;6180527;28;20084;-91
2023/06/08 03:48:03;;;;;;;13.77;6.60;;;;;;;14.67;100.00;100869.78;6241465;28;20100;-90
2023/06/08 03:51:07;;;;;;;11.90;6.47;;;;;;;14.67;100.00;100876.78;6250893;28;20077;-91
2023/06/08 03:54:10;;;;;;;11.95;6.72;;;;;;;14.75;100.00;100877.72;6218982;28;20418;-91
2023/06/08 03:57:12;;;;;;;12.95;6.82;;;;;;;14.83;100.00;100882.22;6235411;28;20581;-91
2023/06/08 04:00:15;;;;;;;11.10;6.85;;;;;;;14.89;100.00;100879.06;6239932;28;20060;-91
2023/06/08 04:03:16;;;;;;;10.85;6.38;;;;;;;14.93;100.00;100884.81;6246290;28;20049;-90
2023/06/08 04:06:19;;;;;;;13.10;6.53;;;;;;;14.85;100.00;100881.13;6244066;28;20161;-90
2023/06/08 04:09:21;;;;;;;15.05;6.88;;;;;;;14.74;100.00;100886.50;6240047;28;20046;-91
2023/06/08 04:12:23;;;;;;;12.48;6.68;;;;;;;14.70;100.00;100887.72;6234958;28;20100;-91
2023/06/08 04:15:26;;;;;;;14.15;7.40;;;;;;;14.64;100.00;100883.09;6256448;28;20045;-91
2023/06/08 04:18:31;;;;;;;12.23;6.32;;;;;;;14.66;100.00;100891.59;6239829;28;20056;-91
2023/06/08 04:21:34;;;;;;;15.25;7.15;;;;;;;14.68;100.00;100888.84;6251673;28;20046;-90
2023/06/08 04:24:42;;;;;;;14.13;7.07;;;;;;;14.65;100.00;100892.53;6247248;28;20509;-90
2023/06/08 04:27:44;;;;;;;13.27;7.35;;;;;;;14.63;100.00;100884.03;6236195;28;20090;-91
2023/06/08 04:30:46;;;;;;;11.27;6.78;;;;;;;14.60;100.00;100879.94;6236101;28;20045;-91
2023/06/08 04:33:49;;;;;;;15.60;7.60;;;;;;;14.69;100.00;100896.53;6237998;28;20337;-90
2023/06/08 04:36:53;;;;;;;16.08;6.75;;;;;;;14.72;100.00;100891.03;6247765;28;20335;-90
2023/06/08 04:39:56;;;;;;;17.88;7.07;;;;;;;14.69;100.00;100885.28;6225315;28;20116;-90
2023/06/08 04:43:02;;;;;;;16.95;7.07;;;;;;;14.69;100.00;100880.06;6246586;28;20042;-91
2023/06/08 04:46:07;;;;;;;14.65;7.25;;;;;;;14.69;100.00;100886.09;6255035;28;20570;-91
2023/06/08 04:49:10;;;;;;;13.63;7.10;;;;;;;14.76;100.00;100884.59;6242426;28;20045;-90
2023/06/08 04:52:15;;;;;;;16.05;6.95;;;;;;;14.73;100.00;100895.31;6218179;28;20057;-90
2023/06/08 04:55:17;;;;;;;12.45;7.18;;;;;;;14.71;100.00;100884.19;6224624;28;20046;-90
2023/06/08 04:58:19;;;;;;;15.40;7.97;;;;;;;14.76;100.00;100887.19;6231363;28;20037;-90
2023/06/08 05:01:21;;;;;;;14.88;7.28;;;;;;;14.74;100.00;100889.13;6227097;28;20045;-91
2023/06/08 05:04:25;;;;;;;18.67;8.45;;;;;;;14.72;100.00;100880.59;6244366;28;20075;-91
2023/06/08 05:07:26;;;;;;;16.17;8.27;;;;;;;14.80;100.00;100882.50;6253431;28;20180;-90
2023/06/08 05:10:28;;;;;;;19.15;8.73;;;;;;;14.83;100.00;100880.47;6240523;28;20050;-90
2023/06/08 05:13:30;;;;;;;15.50;8.75;;;;;;;14.76;100.00;100884.59;6249566;28;20415;-91
2023/06/08 05:16:33;;;;;;;15.57;7.95;;;;;;;14.83;100.00;100883.06;6235034;28;20406;-90
2023/06/08 05:19:35;;;;;;;20.15;8.10;;;;;;;15.04;100.00;100880.25;6236169;28;20486;-90
2023/06/08 05:22:38;;;;;;;17.42;8.43;;;;;;;15.18;100.00;100879.00;6217795;28;20418;-90
2023/06/08 05:25:39;;;;;;;14.40;8.13;;;;;;;15.25;100.00;100874.03;6234786;28;20558;-90
2023/06/08 05:28:41;;;;;;;19.98;8.15;;;;;;;15.38;100.00;100881.50;6236334;28;20703;-90
2023/06/08 05:31:43;;;;;;;14.10;8.23;;;;;;;15.48;100.00;100867.47;6237758;28;20046;-90
2023/06/08 05:34:45;;;;;;;16.35;7.10;;;;;;;15.55;100.00;100872.09;6234905;28;20049;-90
2023/06/08 05:37:47;;;;;;;14.13;7.68;;;;;;;15.55;100.00;100878.13;6235123;28;20042;-90
2023/06/08 05:40:49;;;;;;;16.75;8.18;;;;;;;15.56;100.00;100869.38;6234661;28;20050;-90
2023/06/08 05:43:52;;;;;;;18.40;8.55;;;;;;;15.56;100.00;100864.16;6235412;28;20042;-90
2023/06/08 05:46:54;;;;;;;15.52;7.85;;;;;;;15.58;100.00;100877.06;6234303;28;20045;-90
2023/06/08 05:49:56;;;;;;;14.60;8.02;;;;;;;15.64;100.00;100874.66;6236182;28;20129;-90
2023/06/08 05:52:58;;;;;;;17.73;8.55;;;;;;;15.76;100.00;100877.13;6217509;28;20048;-90
2023/06/08 05:56:00;;;;;;;16.08;8.57;;;;;;;15.86;100.00;100875.28;6233260;28;20228;-91
2023/06/08 05:59:02;;;;;;;14.00;8.13;;;;;;;15.95;100.00;100877.00;6235154;28;20041;-90
2023/06/08 06:02:04;;;;;;;17.10;8.10;;;;;;;15.97;100.00;100874.22;6242275;28;20395;-90
2023/06/08 06:05:08;;;;;;;17.58;8.57;;;;;;;16.03;100.00;100871.06;6235254;28;20061;-90
2023/06/08 06:08:11;;;;;;;15.65;8.30;;;;;;;16.09;100.00;100868.66;6244242;28;20400;-90
2023/06/08 06:11:12;;;;;;;15.90;9.68;;;;;;;16.20;100.00;100862.41;6238842;28;20376;-90
2023/06/08 06:14:15;;;;;;;19.08;9.23;;;;;;;16.32;100.00;100870.81;6240130;28;20380;-90
2023/06/08 06:17:17;;;;;;;15.52;8.63;;;;;;;16.43;100.00;100877.63;6259398;28;20044;-90
2023/06/08 06:20:19;;;;;;;15.32;8.68;;;;;;;16.53;100.00;100870.50;6240724;28;20053;-90
2023/06/08 06:23:21;;;;;;;16.83;9.10;;;;;;;16.62;100.00;100872.22;6252942;28;20053;-90
2023/06/08 06:26:25;;;;;;;17.13;8.48;;;;;;;16.81;100.00;100873.03;6228697;28;20045;-90
2023/06/08 06:29:27;;;;;;;15.80;8.38;;;;;;;17.00;100.00;100888.50;6247427;28;20072;-90
2023/06/08 06:32:29;;;;;;;15.73;8.73;;;;;;;17.14;100.00;100887.09;6259560;28;20044;-90
2023/06/08 06:35:31;;;;;;;12.70;8.20;;;;;;;17.21;100.00;100891.56;6256360;28;20075;-90
2023/06/08 06:38:33;;;;;;;15.43;8.73;;;;;;;17.27;100.00;100895.38;6260989;28;20045;-90
2023/06/08 06:41:35;;;;;;;14.40;8.05;;;;;;;17.38;100.00;100889.03;6252933;28;20118;-90
2023/06/08 06:44:37;;;;;;;13.50;8.63;;;;;;;17.47;100.00;100895.13;6245304;28;20037;-90
2023/06/08 06:47:39;;;;;;;13.98;8.85;;;;;;;17.54;100.00;100907.44;6249760;28;20109;-90
2023/06/08 06:50:41;;;;;;;18.08;9.15;;;;;;;17.55;100.00;100905.63;6244682;28;20478;-90
2023/06/08 06:53:43;;;;;;;14.65;9.27;;;;;;;17.37;100.00;100893.47;6254569;28;20050;-90
2023/06/08 06:56:48;;;;;;;17.35;9.10;;;;;;;17.26;100.00;100901.56;6250985;28;20045;-90
2023/06/08 06:59:50;;;;;;;16.48;8.95;;;;;;;17.19;100.00;100897.94;6259707;28;20136;-90
2023/06/08 07:02:53;;;;;;;16.48;9.32;;;;;;;17.27;100.00;100895.38;6245967;28;20514;-90
2023/06/08 07:05:58;;;;;;;16.88;9.98;;;;;;;17.38;100.00;100897.69;6252791;28;20045;-90
2023/06/08 07:09:00;;;;;;;19.92;9.77;;;;;;;17.48;100.00;100896.78;6223978;28;20048;-90
2023/06/08 07:12:02;;;;;;;14.75;8.93;;;;;;;17.73;100.00;100908.97;6246932;28;20033;-90
2023/06/08 07:15:18;;;;;;;15.88;9.18;;;;;;;17.90;100.00;100894.16;6253588;28;20087;-90
2023/06/08 07:18:20;;;;;;;14.10;9.23;;;;;;;18.07;100.00;100901.06;6247923;28;20051;-90
2023/06/08 07:21:23;;;;;;;18.05;9.25;;;;;;;18.36;100.00;100894.56;6240473;28;20726;-90
2023/06/08 07:24:30;;;;;;;16.90;9.07;;;;;;;18.49;100.00;100892.28;6246385;28;20068;-90
2023/06/08 07:27:52;;;;;;;17.75;9.25;;;;;;;18.57;100.00;100890.63;6242645;28;20116;-90
2023/06/08 07:30:54;;;;;;;17.30;9.57;;;;;;;18.56;100.00;100889.81;6242197;28;20483;-90
2023/06/08 07:34:02;;;;;;;15.93;9.25;;;;;;;18.51;100.00;100889.50;6235089;28;20065;-90
2023/06/08 07:37:05;;;;;;;15.65;9.32;;;;;;;18.59;100.00;100904.41;6248055;28;20048;-90
2023/06/08 07:40:07;;;;;;;20.65;9.38;;;;;;;18.74;100.00;100910.63;6244637;28;20049;-89
2023/06/08 07:43:10;;;;;;;17.60;9.80;;;;;;;18.83;100.00;100898.34;6247006;28;20450;-90
2023/06/08 07:46:13;;;;;;;16.02;9.68;;;;;;;18.72;100.00;100904.72;6248886;28;20454;-90
2023/06/08 07:49:15;;;;;;;16.42;10.30;;;;;;;18.38;100.00;100891.78;6256024;28;20494;-90
2023/06/08 07:52:18;;;;;;;18.88;10.32;;;;;;;18.00;100.00;100892.22;6241810;28;20049;-90
2023/06/08 07:55:21;;;;;;;17.83;9.57;;;;;;;17.88;100.00;100903.97;6245000;28;20053;-90
2023/06/08 07:58:23;;;;;;;16.35;9.25;;;;;;;18.32;100.00;100910.78;6246016;28;20041;-90
2023/06/08 08:01:24;;;;;;;17.38;9.68;;;;;;;18.79;100.00;100913.59;6256881;28;20037;-89
2023/06/08 08:04:26;;;;;;;20.38;10.90;;;;;;;19.08;100.00;100899.09;6232887;28;20049;-89
2023/06/08 08:07:28;;;;;;;16.98;9.40;;;;;;;19.23;100.00;100905.31;6238469;28;20530;-90
2023/06/08 08:10:31;;;;;;;15.75;9.60;;;;;;;19.49;100.00;100906.88;6237771;28;20096;-90
2023/06/08 08:13:33;;;;;;;17.27;9.15;;;;;;;19.79;100.00;100926.31;6248536;28;20044;-90
2023/06/08 08:16:39;;;;;;;17.73;10.68;;;;;;;20.08;100.00;100902.00;6254315;28;20044;-89
2023/06/08 08:19:41;;;;;;;17.42;9.05;;;;;;;20.26;100.00;100898.28;6245741;28;20141;-89
2023/06/08 08:22:42;;;;;;;17.73;9.80;;;;;;;20.47;100.00;100894.97;6238645;28;20049;-90
2023/06/08 08:25:44;;;;;;;18.55;8.95;;;;;;;20.64;100.00;100888.59;6238352;28;20425;-90
2023/06/08 08:28:46;;;;;;;18.73;9.90;;;;;;;20.73;100.00;100892.00;6238565;28;20049;-90
2023/06/08 08:31:51;;;;;;;16.75;9.93;;;;;;;20.68;100.00;100889.09;6237715;28;20046;-90
2023/06/08 08:34:53;;;;;;;17.17;9.77;;;;;;;20.53;100.00;100879.31;6237535;28;20033;-90
2023/06/08 08:37:56;;;;;;;15.68;9.30;;;;;;;20.54;100.00;100869.59;6238217;28;20100;-90
2023/06/08 08:41:04;;;;;;;19.13;9.95;;;;;;;20.64;100.00;100891.25;6237683;28;20045;-89
2023/06/08 08:44:20;;;;;;;19.40;10.00;;;;;;;20.77;100.00;100890.63;6235416;28;20048;-90
2023/06/08 08:47:24;;;;;;;17.27;9.90;;;;;;;20.79;100.00;100892.09;6256929;28;20045;-89
2023/06/08 08:50:27;;;;;;;19.08;10.25;;;;;;;20.43;100.00;100889.25;6238329;28;20052;-89
2023/06/08 08:53:30;;;;;;;19.17;10.40;;;;;;;20.01;100.00;100885.28;6253149;28;20041;-89
2023/06/08 08:56:35;;;;;;;19.55;9.57;;;;;;;19.74;100.00;100887.41;6236710;28;20174;-91
2023/06/08 08:59:38;;;;;;;18.63;10.68;;;;;;;19.74;100.00;100899.72;6240643;28;20041;-90
2023/06/08 09:02:40;;;;;;;21.30;10.07;;;;;;;19.92;100.00;100881.06;6249399;28;20502;-89
2023/06/08 09:05:48;;;;;;;16.50;9.77;;;;;;;20.14;100.00;100875.00;6235888;28;20052;-90
2023/06/08 09:08:53;;;;;;;16.70;9.63;;;;;;;20.40;100.00;100874.66;6238354;28;20037;-89
2023/06/08 09:11:58;;;;;;;16.92;9.68;;;;;;;20.59;100.00;100875.19;6233532;28;20108;-89
2023/06/08 09:15:00;;;;;;;17.67;9.55;;;;;;;20.62;100.00;100875.66;6234064;28;20120;-89
2023/06/08 09:18:15;;;;;;;18.17;9.50;;;;;;;20.65;100.00;100872.66;6247190;28;20037;-89
2023/06/08 09:21:27;;;;;;;16.60;10.13;;;;;;;20.69;100.00;100867.84;6239693;28;20091;-90
2023/06/08 09:24:29;;;;;;;19.98;10.88;;;;;;;20.81;100.00;100876.94;6237072;28;20046;-89
2023/06/08 09:27:31;;;;;;;17.48;10.63;;;;;;;20.96;100.00;100876.13;6238453;28;20112;-89
2023/06/08 09:30:35;;;;;;;18.48;10.15;;;;;;;20.94;100.00;100872.88;6237245;28;20259;-89
2023/06/08 09:33:38;;;;;;;20.55;10.70;;;;;;;20.97;100.00;100883.88;6237901;28;20053;-89
2023/06/08 09:36:40;;;;;;;15.82;10.20;;;;;;;21.04;100.00;100873.41;6239402;28;20306;-89
2023/06/08 09:39:44;;;;;;;18.33;10.63;;;;;;;21.01;100.00;100871.97;6244836;28;20037;-89
2023/06/08 09:42:50;;;;;;;18.92;9.77;;;;;;;21.01;100.00;100871.16;6232752;28;20041;-89
2023/06/08 09:45:53;;;;;;;18.80;10.82;;;;;;;20.91;100.00;100875.88;6243773;28;20037;-89
2023/06/08 09:49:00;;;;;;;16.33;10.88;;;;;;;20.92;100.00;100877.50;6246298;28;20648;-89
2023/06/08 09:52:05;;;;;;;16.73;10.25;;;;;;;20.95;100.00;100877.16;6244257;28;20207;-89
2023/06/08 09:55:10;;;;;;;20.55;11.05;;;;;;;20.97;100.00;100880.41;6245706;28;20053;-89
2023/06/08 09:58:13;;;;;;;18.90;11.43;;;;;;;20.97;100.00;100881.22;6262461;28;20046;-89
2023/06/08 10:01:18;;;;;;;21.05;12.00;;;;;;;20.93;100.00;100879.94;6247403;28;20052;-89
2023/06/08 10:04:21;;;;;;;21.58;10.75;;;;;;;20.90;100.00;100887.41;6251057;28;20044;-89
2023/06/08 10:07:29;;;;;;;17.98;10.38;;;;;;;20.72;100.00;100883.28;6255965;28;20271;-88
2023/06/08 10:10:36;;;;;;;17.63;11.00;;;;;;;20.52;100.00;100885.59;6245103;28;20076;-88
2023/06/08 10:13:39;;;;;;;18.02;11.18;;;;;;;20.42;100.00;100893.72;6244533;28;20390;-88
2023/06/08 10:16:41;;;;;;;18.58;10.30;;;;;;;20.47;100.00;100898.44;6248783;28;20079;-88
2023/06/08 10:19:43;;;;;;;19.98;10.85;;;;;;;20.63;100.00;100885.16;6255623;28;20040;-88
2023/06/08 10:22:46;;;;;;;15.63;11.00;;;;;;;20.73;100.00;100881.47;6246318;28;20052;-88
2023/06/08 10:25:50;;;;;;;17.17;11.57;;;;;;;20.79;100.00;100886.81;6265377;28;20044;-88
2023/06/08 10:29:10;;;;;;;20.50;11.55;;;;;;;20.47;100.00;100873.94;6250860;28;20095;-87
2023/06/08 10:32:39;;;;;;;19.92;11.57;;;;;;;20.23;100.00;100876.59;6240454;28;20450;-87
2023/06/08 10:36:02;;;;;;;19.92;11.88;;;;;;;20.33;100.00;100867.66;6247765;28;20099;-87
2023/06/08 10:39:10;;;;;;;20.60;11.43;;;;;;;20.21;100.00;100862.00;6248087;28;20064;-87
2023/06/08 10:42:21;;;;;;;21.98;11.90;;;;;;;20.22;100.00;100863.63;6256202;28;20124;-87
2023/06/08 10:45:33;;;;;;;18.65;11.68;;;;;;;19.93;100.00;100867.78;6268471;28;20041;-87
2023/06/08 10:48:42;;;;;;;20.92;12.10;;;;;;;19.58;100.00;100861.22;6247476;28;20072;-86
2023/06/08 10:51:44;;;;;;;19.67;12.15;;;;;;;19.48;100.00;100861.44;6245533;28;20060;-86
2023/06/08 10:54:49;;;;;;;19.45;11.57;;;;;;;19.54;100.00;100858.09;6264811;28;20119;-86
2023/06/08 10:57:55;;;;;;;16.77;12.65;;;;;;;19.66;100.00;100860.34;6247684;28;20048;-87
2023/06/08 11:01:06;;;;;;;20.13;12.35;;;;;;;19.91;100.00;100853.19;6245158;28;20044;-87
2023/06/08 11:04:09;;;;;;;20.95;12.45;;;;;;;20.04;100.00;100847.34;6256046;28;20048;-87
2023/06/08 11:07:15;;;;;;;21.25;12.77;;;;;;;20.32;100.00;100848.44;6260357;28;20049;-87
2023/06/08 11:10:22;;;;;;;23.83;12.27;;;;;;;20.53;100.00;100850.38;6256506;28;20088;-87
2023/06/08 11:13:24;;;;;;;24.27;12.45;;;;;;;20.73;100.00;100840.19;6223087;28;20045;-87
2023/06/08 11:16:27;;;;;;;18.02;11.48;;;;;;;20.94;100.00;100844.72;6252317;28;20332;-87
2023/06/08 11:19:30;;;;;;;20.77;12.05;;;;;;;21.18;100.00;100843.63;6242699;28;20045;-87
2023/06/08 11:22:32;;;;;;;21.15;11.63;;;;;;;21.45;100.00;100842.19;6237648;28;20478;-87
2023/06/08 11:25:37;;;;;;;17.38;12.10;;;;;;;21.84;100.00;100840.19;6239064;28;20052;-87
2023/06/08 11:28:39;;;;;;;16.60;11.95;;;;;;;22.26;100.00;100835.91;6238910;28;20037;-87
2023/06/08 11:31:41;;;;;;;21.83;12.20;;;;;;;22.66;100.00;100838.84;6239284;28;20049;-87
2023/06/08 11:34:51;;;;;;;17.48;12.43;;;;;;;23.07;100.00;100841.56;6243312;28;20344;-88
2023/06/08 11:37:55;;;;;;;20.60;12.10;;;;;;;23.41;100.00;100843.31;6241339;28;20053;-88
2023/06/08 11:40:57;;;;;;;16.88;11.38;;;;;;;23.88;100.00;100830.25;6241102;28;20128;-88
2023/06/08 11:44:00;;;;;;;25.58;12.27;;;;;;;24.38;100.00;100829.88;6246695;28;20037;-89
2023/06/08 11:47:06;;;;;;;21.05;10.48;;;;;;;24.54;100.00;100832.09;6240376;28;20049;-89
2023/06/08 11:50:10;;;;;;;20.13;12.48;;;;;;;24.64;100.00;100823.75;6242632;28;20043;-89
2023/06/08 11:53:13;;;;;;;17.92;12.57;;;;;;;24.59;100.00;100815.63;6250615;28;20487;-89
2023/06/08 11:56:15;;;;;;;18.52;12.68;;;;;;;24.48;100.00;100809.13;6237966;28;20037;-89
2023/06/08 11:59:24;;;;;;;18.02;11.88;;;;;;;24.22;100.00;100801.97;6241257;28;20044;-88
2023/06/08 12:02:25;;;;;;;17.75;11.40;;;;;;;24.06;100.00;100805.88;6248098;28;20053;-89
2023/06/08 12:05:28;;;;;;;20.83;11.93;;;;;;;24.19;100.00;100812.97;6255449;28;20041;-88
2023/06/08 12:08:29;;;;;;;20.85;11.68;;;;;;;24.19;100.00;100802.41;6236922;28;20128;-89
2023/06/08 12:11:36;;;;;;;20.35;12.55;;;;;;;24.19;100.00;100805.03;6242055;28;20491;-89
2023/06/08 12:14:50;;;;;;;19.52;11.40;;;;;;;24.12;100.00;100806.88;6248606;28;20115;-89
2023/06/08 12:17:51;;;;;;;16.75;11.90;;;;;;;24.21;100.00;100797.72;6237473;28;20576;-89
2023/06/08 12:20:54;;;;;;;16.88;11.88;;;;;;;24.24;100.00;100795.47;6243911;28;20079;-89
2023/06/08 12:23:57;;;;;;;18.40;11.63;;;;;;;24.40;100.00;100791.59;6241714;28;20076;-88
2023/06/08 12:26:59;;;;;;;15.50;10.88;;;;;;;24.48;100.00;100802.00;6238593;28;20033;-90
2023/06/08 12:30:01;;;;;;;13.73;10.68;;;;;;;24.51;100.00;100792.84;6244433;28;20037;-89
2023/06/08 12:33:03;;;;;;;17.88;11.07;;;;;;;24.54;100.00;100784.47;6249074;28;20495;-89
2023/06/08 12:36:05;;;;;;;15.57;10.93;;;;;;;24.65;100.00;100783.03;6228434;28;20452;-90
2023/06/08 12:39:08;;;;;;;17.83;10.70;;;;;;;24.87;100.00;100783.59;6232000;28;20240;-89
2023/06/08 12:42:09;;;;;;;14.88;11.02;;;;;;;25.46;100.00;100785.13;6222363;28;20061;-89
2023/06/08 12:45:12;;;;;;;14.15;10.63;;;;;;;26.04;100.00;100785.97;6226639;28;20255;-89
2023/06/08 12:48:14;;;;;;;13.13;11.02;;;;;;;26.34;100.00;100786.94;6260715;28;20433;-90
2023/06/08 12:51:16;;;;;;;16.02;11.00;;;;;;;26.86;100.00;100781.31;6238774;28;20056;-89
2023/06/08 12:54:18;;;;;;;14.90;10.77;;;;;;;27.07;100.00;100786.16;6239063;28;20052;-89
2023/06/08 12:57:19;;;;;;;15.80;10.73;;;;;;;27.24;100.00;100772.28;6247547;28;20045;-90
2023/06/08 13:00:22;;;;;;;14.77;9.75;;;;;;;27.51;100.00;100774.56;6240080;28;20093;-89
2023/06/08 13:03:24;;;;;;;15.52;10.63;;;;;;;27.65;100.00;100760.84;6247145;28;20045;-89
2023/06/08 13:06:27;;;;;;;12.40;10.32;;;;;;;27.80;100.00;100757.75;6238234;28;20052;-90
2023/06/08 13:09:43;;;;;;;15.57;9.88;;;;;;;27.99;100.00;100757.66;6247685;28;20120;-90
2023/06/08 13:13:17;;;;;;;12.90;8.73;;;;;;;27.72;100.00;100750.06;6236479;28;20072;-90
2023/06/08 13:16:20;;;;;;;14.25;8.77;;;;;;;27.38;100.00;100746.31;6238546;28;20490;-90
2023/06/08 13:19:23;;;;;;;14.77;9.88;;;;;;;27.18;100.00;100760.72;6240904;28;20418;-91
2023/06/08 13:22:25;;;;;;;11.65;8.73;;;;;;;27.16;100.00;100752.13;6222678;28;20461;-90
2023/06/08 13:25:27;;;;;;;13.32;9.30;;;;;;;27.48;100.00;100743.94;6249521;28;20459;-90
2023/06/08 13:28:29;;;;;;;12.02;8.88;;;;;;;27.88;100.00;100740.66;6248986;28;20037;-91
2023/06/08 13:31:31;;;;;;;12.43;9.20;;;;;;;28.23;100.00;100739.84;6244266;28;20045;-90
2023/06/08 13:34:33;;;;;;;12.82;9.45;;;;;;;28.15;100.00;100738.34;6240889;28;20080;-91
2023/06/08 13:37:35;;;;;;;12.30;9.25;;;;;;;27.97;100.00;100733.94;6229374;28;20095;-91
2023/06/08 13:40:38;;;;;;;11.27;8.40;;;;;;;27.77;100.00;100725.47;6242651;28;20042;-90
2023/06/08 13:43:43;;;;;;;9.27;7.97;;;;;;;27.95;100.00;100714.75;6245531;28;20107;-90
2023/06/08 13:46:45;;;;;;;9.98;7.88;;;;;;;27.97;100.00;100715.31;6241914;28;20359;-90
2023/06/08 13:49:47;;;;;;;10.93;8.30;;;;;;;28.12;100.00;100715.66;6241204;28;20175;-90
2023/06/08 13:52:49;;;;;;;11.05;8.18;;;;;;;28.26;100.00;100702.09;6241657;28;20123;-91